createdAt,value
2018-09-08T00:02:01.853Z,3.67
2018-09-08T00:04:31.213Z,3.40
2018-09-08T00:07:05.854Z,3.53
2018-09-08T00:09:35.255Z,3.80
2018-09-08T00:12:04.605Z,3.40
2018-09-08T00:14:33.038Z,3.53
2018-09-08T00:17:07.588Z,3.70
2018-09-08T00:19:42.084Z,3.97
2018-09-08T00:22:16.799Z,3.87
2018-09-08T00:24:51.297Z,4.13
2018-09-08T00:27:22.740Z,4.50
2018-09-08T00:29:52.105Z,4.13
2018-09-08T00:32:22.513Z,4.00
2018-09-08T00:34:51.868Z,4.43
2018-09-08T00:37:21.240Z,4.40
2018-09-08T00:39:52.237Z,4.13
2018-09-08T00:42:21.620Z,4.53
2018-09-08T00:44:50.941Z,4.43
2018-09-08T00:47:20.335Z,4.80
2018-09-08T00:49:49.732Z,4.60
2018-09-08T00:52:19.140Z,4.67
2018-09-08T00:54:48.560Z,5.20
2018-09-08T00:57:17.932Z,4.20
2018-09-08T00:59:47.348Z,4.57
2018-09-08T01:02:16.731Z,4.57
2018-09-08T01:04:46.541Z,4.70
2018-09-08T01:07:21.152Z,4.50
2018-09-08T01:09:50.690Z,4.57
2018-09-08T01:12:20.122Z,4.70
2018-09-08T01:14:49.540Z,4.53
2018-09-08T01:17:18.904Z,4.37
2018-09-08T01:19:48.354Z,4.27
2018-09-08T01:22:18.193Z,4.23
2018-09-08T01:24:47.604Z,3.93
2018-09-08T01:27:16.935Z,4.27
2018-09-08T01:29:46.315Z,4.10
2018-09-08T01:32:15.683Z,4.37
2018-09-08T01:34:45.227Z,3.80
2018-09-08T01:37:14.592Z,4.03
2018-09-08T01:39:44.018Z,4.40
2018-09-08T01:42:13.371Z,4.83
2018-09-08T01:44:42.769Z,3.67
2018-09-08T01:47:12.114Z,4.75
2018-09-08T01:49:41.462Z,3.93
2018-09-08T01:52:10.776Z,3.60
2018-09-08T01:54:40.123Z,4.10
2018-09-08T01:57:09.490Z,3.50
2018-09-08T01:59:38.883Z,4.30
2018-09-08T02:02:08.220Z,3.67
2018-09-08T02:04:37.579Z,3.13
2018-09-08T02:07:06.924Z,3.47
2018-09-08T02:09:36.420Z,3.83
2018-09-08T02:12:05.785Z,3.70
2018-09-08T02:14:35.756Z,3.47
2018-09-08T02:17:05.431Z,5.37
2018-09-08T02:19:34.792Z,4.70
2018-09-08T02:22:04.136Z,3.90
2018-09-08T02:24:34.384Z,3.80
2018-09-08T02:27:03.747Z,3.83
2018-09-08T02:29:33.093Z,3.53
2018-09-08T02:32:02.425Z,3.90
2018-09-08T02:34:31.836Z,3.30
2018-09-08T02:37:01.220Z,4.17
2018-09-08T02:39:30.578Z,4.60
2018-09-08T02:41:59.924Z,4.67
2018-09-08T02:44:29.288Z,5.10
2018-09-08T02:46:58.687Z,5.10
2018-09-08T02:49:47.735Z,4.60
2018-09-08T02:52:15.393Z,5.15
2018-09-08T02:54:43.057Z,4.80
2018-09-08T02:57:11.431Z,4.60
2018-09-08T02:59:39.167Z,4.53
2018-09-08T03:02:06.849Z,4.83
2018-09-08T03:04:34.517Z,4.90
2018-09-08T03:07:06.252Z,4.67
2018-09-08T03:09:34.032Z,4.40
2018-09-08T03:12:01.681Z,4.20
2018-09-08T03:14:29.358Z,4.60
2018-09-08T03:16:57.040Z,4.33
2018-09-08T03:19:24.726Z,4.60
2018-09-08T03:21:52.392Z,4.53
2018-09-08T03:24:20.085Z,4.13
2018-09-08T03:26:47.711Z,4.00
2018-09-08T03:29:15.409Z,4.17
2018-09-08T03:31:43.119Z,4.43
2018-09-08T03:34:11.131Z,4.17
2018-09-08T03:36:38.773Z,3.90
2018-09-08T03:39:06.477Z,4.40
2018-09-08T03:41:34.624Z,3.97
2018-09-08T03:44:02.399Z,4.43
2018-09-08T03:46:30.463Z,4.77
2018-09-08T03:48:58.111Z,3.53
2018-09-08T03:51:25.791Z,4.20
2018-09-08T03:53:53.437Z,3.40
2018-09-08T03:56:21.116Z,3.90
2018-09-08T03:58:48.766Z,4.00
2018-09-08T04:01:16.403Z,4.20
2018-09-08T04:03:45.739Z,4.40
2018-09-08T04:06:15.166Z,4.72
2018-09-08T04:08:44.519Z,4.13
2018-09-08T04:11:13.972Z,3.50
2018-09-08T04:13:43.273Z,3.80
2018-09-08T04:16:12.694Z,3.80
2018-09-08T04:18:42.026Z,4.10
2018-09-08T04:21:11.412Z,4.80
2018-09-08T04:23:40.794Z,4.27
2018-09-08T04:26:10.164Z,3.97
2018-09-08T04:28:39.564Z,4.47
2018-09-08T04:31:08.880Z,4.33
2018-09-08T04:33:38.229Z,3.73
2018-09-08T04:36:07.599Z,4.00
2018-09-08T04:38:36.961Z,3.67
2018-09-08T04:41:06.436Z,4.47
2018-09-08T04:43:35.755Z,4.27
2018-09-08T04:46:05.145Z,3.97
2018-09-08T04:48:34.525Z,5.00
2018-09-08T04:51:03.893Z,4.07
2018-09-08T04:53:33.304Z,5.73
2018-09-08T04:56:02.639Z,4.97
2018-09-08T04:58:32.031Z,6.10
2018-09-08T05:01:01.341Z,6.03
2018-09-08T05:03:30.681Z,5.70
2018-09-08T05:06:00.068Z,5.40
2018-09-08T05:08:29.500Z,6.40
2018-09-08T05:10:58.886Z,5.87
2018-09-08T05:13:28.208Z,5.33
2018-09-08T05:15:57.554Z,4.77
2018-09-08T05:18:27.313Z,4.70
2018-09-08T05:20:56.657Z,4.13
2018-09-08T05:23:26.042Z,4.30
2018-09-08T05:25:55.357Z,5.17
2018-09-08T05:28:24.783Z,4.30
2018-09-08T05:30:54.275Z,4.97
2018-09-08T05:33:23.650Z,4.77
2018-09-08T05:35:52.976Z,5.60
2018-09-08T05:38:22.328Z,5.00
2018-09-08T05:40:51.663Z,5.20
2018-09-08T05:43:21.042Z,5.30
2018-09-08T05:45:50.401Z,5.47
2018-09-08T05:48:19.779Z,4.50
2018-09-08T05:50:49.147Z,5.60
2018-09-08T05:53:18.496Z,4.93
2018-09-08T05:55:47.812Z,5.93
2018-09-08T05:58:17.206Z,7.10
2018-09-08T06:00:46.560Z,7.67
2018-09-08T06:03:15.913Z,7.50
2018-09-08T06:05:45.363Z,6.93
2018-09-08T06:08:14.710Z,7.53
2018-09-08T06:10:44.091Z,7.10
2018-09-08T06:13:13.521Z,7.13
2018-09-08T06:15:42.881Z,6.47
2018-09-08T06:18:12.241Z,6.53
2018-09-08T06:20:41.606Z,6.40
2018-09-08T06:23:10.981Z,6.97
2018-09-08T06:25:40.509Z,6.70
2018-09-08T06:28:09.816Z,6.63
2018-09-08T06:30:39.176Z,6.53
2018-09-08T06:33:08.514Z,6.63
2018-09-08T06:35:37.959Z,6.67
2018-09-08T06:38:07.373Z,6.17
2018-09-08T06:40:36.752Z,7.10
2018-09-08T06:43:06.343Z,6.57
2018-09-08T06:45:35.747Z,6.37
2018-09-08T06:48:05.190Z,6.77
2018-09-08T06:50:34.552Z,6.97
2018-09-08T06:53:04.061Z,6.03
2018-09-08T06:55:33.412Z,6.90
2018-09-08T06:58:02.897Z,6.67
2018-09-08T07:00:32.200Z,7.17
2018-09-08T07:03:01.578Z,7.47
2018-09-08T07:05:30.984Z,7.20
2018-09-08T07:08:00.480Z,6.87
2018-09-08T07:10:29.874Z,6.80
2018-09-08T07:12:59.359Z,6.57
2018-09-08T07:15:28.735Z,6.60
2018-09-08T07:17:58.337Z,7.70
2018-09-08T07:20:27.779Z,7.10
2018-09-08T07:22:57.208Z,6.90
2018-09-08T07:25:26.662Z,6.90
2018-09-08T07:27:56.086Z,7.07
2018-09-08T07:30:25.409Z,6.90
2018-09-08T07:32:54.788Z,6.70
2018-09-08T07:35:24.181Z,7.57
2018-09-08T07:37:53.591Z,7.30
2018-09-08T07:40:22.973Z,7.20
2018-09-08T07:42:52.355Z,7.07
2018-09-08T07:45:21.780Z,7.30
2018-09-08T07:47:51.129Z,7.43
2018-09-08T07:50:20.542Z,6.90
2018-09-08T07:52:49.908Z,7.10
2018-09-08T07:55:19.240Z,7.37
2018-09-08T07:57:48.693Z,7.17
2018-09-08T08:00:18.127Z,7.10
2018-09-08T08:02:47.698Z,7.23
2018-09-08T08:05:17.075Z,7.07
2018-09-08T08:07:46.533Z,7.20
2018-09-08T08:10:15.922Z,7.13
2018-09-08T08:12:45.592Z,6.07
2018-09-08T08:15:15.088Z,6.67
2018-09-08T08:17:44.562Z,5.97
2018-09-08T08:20:13.895Z,5.43
2018-09-08T08:22:43.262Z,4.83
2018-09-08T08:25:12.786Z,4.60
2018-09-08T08:27:42.172Z,4.20
2018-09-08T08:30:11.550Z,4.87
2018-09-08T08:32:41.003Z,4.17
2018-09-08T08:35:10.447Z,4.60
2018-09-08T08:37:39.797Z,3.80
2018-09-08T08:40:10.327Z,3.67
2018-09-08T08:42:39.709Z,2.80
2018-09-08T08:45:09.092Z,3.00
2018-09-08T08:47:38.439Z,2.87
2018-09-08T08:50:24.768Z,3.57
2018-09-08T08:53:11.160Z,2.63
2018-09-08T08:55:40.664Z,2.10
2018-09-08T08:58:10.059Z,1.67
2018-09-08T09:00:39.423Z,1.80
2018-09-08T09:03:08.821Z,2.13
2018-09-08T09:05:38.366Z,2.00
2018-09-08T09:08:07.795Z,2.37
2018-09-08T09:10:37.216Z,2.37
2018-09-08T09:13:06.659Z,2.60
2018-09-08T09:15:36.380Z,2.40
2018-09-08T09:18:05.389Z,1.90
2018-09-08T09:21:54.947Z,1.70
2018-09-08T09:24:41.342Z,1.80
2018-09-08T09:27:10.449Z,1.80
2018-09-08T09:29:39.905Z,1.67
2018-09-08T09:32:09.295Z,1.70
2018-09-08T09:34:38.796Z,1.80
2018-09-08T09:37:08.172Z,1.70
2018-09-08T09:39:37.547Z,2.03
2018-09-08T09:42:07.091Z,1.60
2018-09-08T09:44:36.521Z,1.83
2018-09-08T09:47:05.842Z,2.50
2018-09-08T09:49:35.225Z,2.67
2018-09-08T09:52:04.730Z,13.17
2018-09-08T09:54:34.155Z,2.80
2018-09-08T09:57:03.693Z,3.07
2018-09-08T09:59:33.117Z,2.70
2018-09-08T10:02:04.153Z,2.10
2018-09-08T10:04:33.888Z,2.30
2018-09-08T10:07:03.359Z,2.93
2018-09-08T10:09:32.741Z,1.93
2018-09-08T10:12:02.204Z,1.80
2018-09-08T10:14:31.564Z,2.40
2018-09-08T10:17:01.006Z,1.83
2018-09-08T10:19:30.477Z,1.87
2018-09-08T10:21:59.932Z,1.70
2018-09-08T10:24:29.479Z,1.60
2018-09-08T10:26:58.891Z,1.63
2018-09-08T10:29:28.340Z,1.70
2018-09-08T10:31:57.751Z,1.47
2018-09-08T10:34:27.129Z,1.70
2018-09-08T10:36:56.510Z,1.67
2018-09-08T10:39:25.876Z,1.83
2018-09-08T10:41:55.286Z,1.70
2018-09-08T10:44:24.688Z,1.70
2018-09-08T10:46:54.127Z,1.90
2018-09-08T10:49:23.516Z,1.47
2018-09-08T10:53:01.799Z,1.50
2018-09-08T10:55:31.241Z,1.70
2018-09-08T10:58:00.673Z,1.70
2018-09-08T11:00:30.064Z,1.73
2018-09-08T11:02:59.491Z,1.80
2018-09-08T11:05:28.902Z,1.80
2018-09-08T11:07:58.332Z,1.50
2018-09-08T11:10:27.730Z,1.67
2018-09-08T11:12:57.125Z,1.10
2018-09-08T11:15:26.518Z,1.27
2018-09-08T11:17:55.947Z,1.53
2018-09-08T11:20:25.368Z,1.63
2018-09-08T11:22:54.808Z,1.40
2018-09-08T11:25:24.184Z,1.10
2018-09-08T11:27:53.661Z,1.50
2018-09-08T11:30:23.020Z,1.40
2018-09-08T11:32:52.383Z,1.30
2018-09-08T11:35:21.750Z,1.47
2018-09-08T11:37:51.135Z,1.40
2018-09-08T11:40:20.562Z,1.30
2018-09-08T11:42:49.978Z,1.07
2018-09-08T11:45:19.374Z,1.10
2018-09-08T11:47:48.752Z,1.30
2018-09-08T11:50:18.171Z,1.40
2018-09-08T11:52:47.560Z,1.50
2018-09-08T11:55:16.945Z,1.30
2018-09-08T11:57:46.365Z,1.00
2018-09-08T12:00:15.785Z,1.53
2018-09-08T12:02:45.186Z,1.50
2018-09-08T12:05:14.629Z,1.30
2018-09-08T12:07:46.504Z,1.40
2018-09-08T12:10:15.881Z,1.33
2018-09-08T12:12:45.300Z,1.50
2018-09-08T12:15:14.690Z,1.50
2018-09-08T12:17:44.067Z,1.33
2018-09-08T12:20:13.423Z,1.20
2018-09-08T12:22:42.828Z,1.30
2018-09-08T12:25:12.253Z,1.20
2018-09-08T12:27:41.690Z,1.10
2018-09-08T12:30:11.150Z,1.40
2018-09-08T12:32:40.570Z,1.30
2018-09-08T12:35:09.935Z,1.33
2018-09-08T12:37:39.309Z,1.77
2018-09-08T12:40:08.885Z,1.60
2018-09-08T12:42:38.286Z,1.30
2018-09-08T12:45:07.869Z,1.33
2018-09-08T12:47:37.289Z,1.33
2018-09-08T12:50:06.748Z,1.40
2018-09-08T12:52:36.212Z,1.63
2018-09-08T12:55:05.963Z,1.20
2018-09-08T12:57:35.365Z,1.40
2018-09-08T13:00:04.825Z,0.97
2018-09-08T13:02:34.347Z,1.60
2018-09-08T13:05:03.748Z,1.30
2018-09-08T13:07:33.776Z,0.93
2018-09-08T13:10:03.138Z,1.43
2018-09-08T13:12:32.690Z,1.20
2018-09-08T13:15:02.124Z,1.00
2018-09-08T13:17:31.512Z,1.30
2018-09-08T13:20:00.928Z,1.23
2018-09-08T13:22:30.345Z,1.20
2018-09-08T13:24:59.790Z,1.23
2018-09-08T13:27:29.249Z,1.00
2018-09-08T13:29:58.680Z,1.13
2018-09-08T13:32:28.070Z,1.13
2018-09-08T13:34:57.524Z,1.00
2018-09-08T13:37:26.954Z,1.20
2018-09-08T13:39:56.546Z,1.20
2018-09-08T13:42:25.917Z,1.03
2018-09-08T13:44:55.409Z,1.10
2018-09-08T13:47:25.176Z,0.97
2018-09-08T13:49:55.604Z,1.67
2018-09-08T13:52:25.054Z,1.20
2018-09-08T13:54:54.574Z,1.17
2018-09-08T13:57:24.704Z,1.20
2018-09-08T13:59:54.227Z,1.03
2018-09-08T14:02:23.761Z,1.20
2018-09-08T14:04:53.289Z,1.17
2018-09-08T14:07:22.867Z,1.32
2018-09-08T14:09:52.477Z,1.20
2018-09-08T14:12:21.921Z,1.10
2018-09-08T14:14:51.445Z,1.10
2018-09-08T14:17:20.915Z,1.00
2018-09-08T14:19:50.438Z,1.03
2018-09-08T14:22:19.873Z,1.20
2018-09-08T14:24:49.409Z,0.83
2018-09-08T14:27:18.893Z,1.10
2018-09-08T14:29:48.364Z,1.10
2018-09-08T14:32:17.905Z,1.20
2018-09-08T14:34:47.393Z,1.13
2018-09-08T14:37:16.987Z,1.23
2018-09-08T14:39:46.629Z,1.07
2018-09-08T14:42:16.233Z,1.20
2018-09-08T14:44:45.726Z,1.00
2018-09-08T14:47:16.203Z,1.47
2018-09-08T14:49:45.674Z,1.07
2018-09-08T14:52:15.324Z,1.53
2018-09-08T14:54:44.920Z,1.00
2018-09-08T14:57:14.537Z,1.10
2018-09-08T14:59:44.177Z,1.10
2018-09-08T15:02:13.662Z,1.17
2018-09-08T15:04:43.308Z,1.10
2018-09-08T15:07:12.858Z,1.13
2018-09-08T15:09:42.405Z,1.10
2018-09-08T15:12:11.947Z,1.10
2018-09-08T15:14:41.515Z,1.23
2018-09-08T15:17:11.002Z,1.00
2018-09-08T15:19:40.560Z,1.20
2018-09-08T15:22:09.983Z,1.00
2018-09-08T15:24:39.475Z,0.90
2018-09-08T15:27:08.999Z,0.93
2018-09-08T15:29:38.622Z,1.07
2018-09-08T15:32:08.118Z,1.13
2018-09-08T15:34:37.621Z,1.30
2018-09-08T15:37:07.109Z,1.07
2018-09-08T15:39:36.601Z,1.10
2018-09-08T15:42:06.351Z,1.20
2018-09-08T15:44:35.847Z,1.30
2018-09-08T15:47:05.420Z,1.03
2018-09-08T15:49:34.914Z,0.90
2018-09-08T15:52:04.544Z,1.20
2018-09-08T15:54:34.009Z,1.07
2018-09-08T15:57:03.684Z,1.00
2018-09-08T15:59:33.127Z,0.90
2018-09-08T16:02:02.728Z,1.10
2018-09-08T16:04:32.311Z,0.90
2018-09-08T16:07:01.790Z,0.97
2018-09-08T16:09:31.260Z,1.10
2018-09-08T16:12:00.736Z,0.80
2018-09-08T16:14:30.437Z,1.20
2018-09-08T16:16:59.737Z,1.20
2018-09-08T16:19:29.246Z,1.10
2018-09-08T16:21:58.779Z,1.00
2018-09-08T16:24:28.405Z,1.10
2018-09-08T16:26:57.889Z,0.90
2018-09-08T16:29:27.491Z,0.90
2018-09-08T16:31:56.916Z,1.30
2018-09-08T16:34:26.372Z,1.13
2018-09-08T16:36:55.757Z,0.97
2018-09-08T16:39:25.177Z,1.00
2018-09-08T16:41:54.920Z,1.00
2018-09-08T16:44:25.315Z,0.80
2018-09-08T16:46:54.745Z,0.97
2018-09-08T16:49:24.388Z,1.00
2018-09-08T16:51:53.957Z,1.00
2018-09-08T16:54:23.414Z,1.00
2018-09-08T16:56:52.874Z,1.20
2018-09-08T16:59:22.388Z,1.00
2018-09-08T17:01:51.842Z,1.10
2018-09-08T17:04:21.290Z,1.17
2018-09-08T17:06:51.077Z,1.00
2018-09-08T17:09:20.441Z,1.10
2018-09-08T17:11:49.879Z,1.17
2018-09-08T17:14:19.352Z,1.40
2018-09-08T17:16:48.817Z,1.10
2018-09-08T17:19:18.338Z,1.10
2018-09-08T17:21:47.776Z,1.20
2018-09-08T17:24:17.232Z,1.70
2018-09-08T17:26:46.802Z,2.10
2018-09-08T17:29:16.331Z,2.22
2018-09-08T17:31:45.905Z,2.37
2018-09-08T17:34:15.491Z,2.00
2018-09-08T17:36:45.057Z,1.77
2018-09-08T17:39:14.604Z,2.50
2018-09-08T17:41:44.147Z,2.30
2018-09-08T17:44:13.571Z,1.97
2018-09-08T17:46:43.147Z,2.03
2018-09-08T17:49:12.534Z,1.60
2018-09-08T17:51:41.929Z,1.40
2018-09-08T17:54:11.301Z,1.43
2018-09-08T17:56:40.690Z,1.70
2018-09-08T17:59:10.045Z,1.40
2018-09-08T18:01:39.478Z,1.97
2018-09-08T18:04:08.877Z,1.80
2018-09-08T18:06:38.253Z,1.40
2018-09-08T18:09:07.817Z,1.70
2018-09-08T18:11:37.187Z,1.40
2018-09-08T18:14:06.625Z,1.60
2018-09-08T18:16:36.068Z,1.50
2018-09-08T18:19:05.453Z,1.80
2018-09-08T18:21:34.937Z,1.60
2018-09-08T18:24:04.352Z,1.60
2018-09-08T18:26:33.815Z,1.43
2018-09-08T18:29:03.192Z,1.57
2018-09-08T18:31:32.710Z,1.20
2018-09-08T18:34:02.153Z,1.20
2018-09-08T18:36:31.857Z,1.50
2018-09-08T18:39:01.249Z,1.80
2018-09-08T18:41:30.707Z,1.07
2018-09-08T18:44:00.046Z,1.20
2018-09-08T18:46:29.434Z,1.37
2018-09-08T18:48:58.805Z,1.20
2018-09-08T18:51:28.181Z,1.30
2018-09-08T18:53:57.682Z,1.17
2018-09-08T18:56:27.028Z,1.20
2018-09-08T18:58:56.497Z,1.20
2018-09-08T19:01:25.906Z,1.27
2018-09-08T19:03:55.303Z,1.07
2018-09-08T19:06:24.718Z,1.10
2018-09-08T19:08:54.212Z,1.30
2018-09-08T19:11:23.613Z,1.37
2018-09-08T19:13:53.107Z,1.53
2018-09-08T19:16:22.550Z,1.40
2018-09-08T19:18:52.031Z,1.67
2018-09-08T19:21:21.450Z,1.60
2018-09-08T19:24:55.409Z,2.10
2018-09-08T19:27:24.846Z,1.57
2018-09-08T19:29:58.424Z,1.80
2018-09-08T19:32:28.596Z,1.50
2018-09-08T19:35:02.940Z,1.73
2018-09-08T19:37:35.542Z,2.53
2018-09-08T19:40:09.118Z,2.20
2018-09-08T19:42:38.567Z,1.50
2018-09-08T19:45:08.756Z,1.50
2018-09-08T19:47:43.388Z,1.70
2018-09-08T19:50:12.854Z,1.67
2018-09-08T19:52:47.417Z,1.57
2018-09-08T19:55:16.799Z,1.57
2018-09-08T19:57:51.467Z,1.70
2018-09-08T20:00:20.942Z,1.97
2018-09-08T20:02:50.334Z,1.53
2018-09-08T20:05:19.768Z,1.40
2018-09-08T20:07:49.163Z,2.03
2018-09-08T20:10:18.608Z,1.90
2018-09-08T20:12:48.087Z,1.87
2018-09-08T20:15:17.513Z,1.80
2018-09-08T20:17:46.903Z,1.97
2018-09-08T20:20:16.274Z,1.90
2018-09-08T20:22:45.693Z,2.00
2018-09-08T20:25:15.088Z,1.70
2018-09-08T20:27:44.526Z,1.50
2018-09-08T20:30:13.944Z,1.60
2018-09-08T20:32:43.334Z,1.90
2018-09-08T20:35:12.778Z,1.83
2018-09-08T20:37:42.185Z,1.50
2018-09-08T20:40:11.649Z,1.87
2018-09-08T20:42:41.105Z,1.90
2018-09-08T20:45:10.502Z,2.20
2018-09-08T20:47:39.908Z,1.60
2018-09-08T20:50:09.318Z,1.80
2018-09-08T20:52:38.645Z,2.57
2018-09-08T20:55:08.098Z,1.40
2018-09-08T20:57:37.549Z,1.87
2018-09-08T21:00:06.994Z,1.47
2018-09-08T21:02:36.424Z,1.83
2018-09-08T21:05:06.129Z,1.50
2018-09-08T21:07:35.571Z,2.20
2018-09-08T21:10:04.889Z,1.80
2018-09-08T21:12:34.302Z,2.03
2018-09-08T21:15:03.700Z,1.90
2018-09-08T21:17:33.095Z,2.10
2018-09-08T21:20:02.591Z,1.83
2018-09-08T21:22:31.932Z,2.10
2018-09-08T21:25:01.374Z,1.73
2018-09-08T21:27:30.834Z,2.00
2018-09-08T21:30:00.233Z,1.97
2018-09-08T21:32:29.594Z,1.63
2018-09-08T21:34:59.025Z,1.70
2018-09-08T21:37:28.523Z,2.07
2018-09-08T21:39:57.907Z,1.80
2018-09-08T21:42:31.069Z,1.83
2018-09-08T21:45:00.427Z,1.80
2018-09-08T21:47:29.824Z,2.40
2018-09-08T21:49:59.224Z,1.60
2018-09-08T21:52:28.599Z,2.03
2018-09-08T21:54:58.556Z,2.03
2018-09-08T21:57:27.978Z,1.73
2018-09-08T21:59:57.408Z,2.00
2018-09-08T22:02:26.865Z,1.60
2018-09-08T22:04:56.223Z,2.40
2018-09-08T22:07:25.574Z,2.10
2018-09-08T22:09:54.951Z,1.80
2018-09-08T22:12:24.350Z,1.87
2018-09-08T22:14:53.734Z,1.57
2018-09-08T22:17:23.130Z,1.47
2018-09-08T22:19:52.483Z,1.93
2018-09-08T22:22:21.885Z,1.47
2018-09-08T22:24:51.268Z,1.50
2018-09-08T22:27:20.682Z,1.80
2018-09-08T22:29:50.082Z,1.47
2018-09-08T22:32:19.447Z,1.70
2018-09-08T22:34:48.833Z,1.93
2018-09-08T22:37:18.221Z,1.80
2018-09-08T22:39:47.549Z,1.77
2018-09-08T22:42:16.916Z,1.70
2018-09-08T22:44:46.288Z,1.80
2018-09-08T22:47:15.712Z,2.00
2018-09-08T22:49:45.069Z,2.20
2018-09-08T22:52:14.419Z,1.80
2018-09-08T22:54:43.778Z,2.00
2018-09-08T22:57:13.159Z,1.90
2018-09-08T22:59:42.604Z,1.80
2018-09-08T23:02:11.893Z,1.77
2018-09-08T23:04:41.313Z,1.97
2018-09-08T23:07:10.688Z,2.37
2018-09-08T23:09:40.093Z,1.90
2018-09-08T23:12:09.455Z,2.03
2018-09-08T23:14:38.868Z,2.10
2018-09-08T23:17:08.226Z,1.60
2018-09-08T23:19:37.625Z,2.23
2018-09-08T23:22:06.965Z,2.00
2018-09-08T23:24:36.374Z,1.80
2018-09-08T23:27:05.710Z,1.80
2018-09-08T23:29:35.114Z,1.77
2018-09-08T23:32:04.505Z,1.87
2018-09-08T23:34:33.858Z,1.80
2018-09-08T23:37:03.228Z,1.93
2018-09-08T23:39:32.603Z,1.80
2018-09-08T23:42:01.998Z,1.70
2018-09-08T23:44:31.353Z,1.90
2018-09-08T23:47:00.683Z,1.53
2018-09-08T23:49:30.070Z,1.80
2018-09-08T23:51:59.550Z,2.00
2018-09-08T23:54:28.917Z,1.90
2018-09-08T23:56:58.321Z,1.73
2018-09-08T23:59:27.867Z,1.93
